Sada Maru No.37 — JD3568 — position and weather

sailwx.info

Track history (hours):
 
Tides and Currents Weather Stations Pressure Air Temp Water Temp Dewpoint Dewpoint Depression Visibility Wind Speed Wind Dir Waves Ship Positions

Sada Maru No.37

Last reported at 2017-Nov-17 09:54 UTC. Time now 2017-Nov-18 21:25 UTC.
Position N 34°51' E 139°52'.

Length 78 m; draft 4.5 m.

Type: Cargo ship. MMSI: 431005101.

Date/timePositionNaut miles runAvg speedWind from/ knotsBaromVisibWave heightAir tempDewpointWater temp
2017-Nov-17 09:54N 34°51' E 139°52'512.6
2017-Nov-17 09:30N 34°53' E 139°46'612.8
2017-Nov-17 09:00N 34°59' E 139°43'611.6
2017-Nov-17 08:30N 35°05' E 139°44'612.5
2017-Nov-17 08:00N 35°11' E 139°46'612.4
2017-Nov-17 07:30N 35°17' E 139°45'612.6
2017-Nov-17 07:00N 35°23' E 139°42'5 9.1
2017-Nov-17 06:30N 35°25' E 139°48'4 7.3
2017-Nov-17 06:00N 35°22' E 139°51'0 0.1
2017-Nov-17 05:29N 35°22' E 139°51'0 0.0
2017-Nov-17 05:00N 35°22' E 139°51'0 0.0
2017-Nov-17 04:30N 35°22' E 139°51'0 0.0
2017-Nov-17 04:00N 35°22' E 139°51'0 0.0
2017-Nov-17 03:30N 35°22' E 139°51'0 0.0
2017-Nov-17 03:00N 35°22' E 139°51'0 0.0
2017-Nov-17 02:30N 35°22' E 139°51'0 0.0
2017-Nov-17 02:00N 35°22' E 139°51'0 0.0
2017-Nov-17 01:30N 35°22' E 139°51'0 0.0
2017-Nov-17 01:00N 35°22' E 139°51'1 1.9
2017-Nov-17 00:30N 35°22' E 139°49'0 0.0
2017-Nov-17 00:00N 35°22' E 139°49'0 0.0
2017-Nov-16 23:30N 35°22' E 139°49'0 0.0
2017-Nov-16 23:00N 35°22' E 139°49'0 0.1
2017-Nov-16 22:30N 35°22' E 139°49'0 0.0
2017-Nov-16 22:00N 35°22' E 139°49'0 0.1
2017-Nov-16 21:30N 35°22' E 139°49'0 0.2
2017-Nov-16 21:00N 35°22' E 139°49'4 8.6
2017-Nov-16 20:30N 35°20' E 139°44'611.6
2017-Nov-16 20:00N 35°15' E 139°47'612.7
2017-Nov-16 19:30N 35°09' E 139°46'713.3
2017-Nov-16 19:00N 35°04' E 139°41'713.2
2017-Nov-16 18:30N 34°59' E 139°34'21 0.7
2017-Nov-15 10:02N 34°52' E 139°10'112.5
2017-Nov-15 09:58N 34°52' E 139°11'1611.9
2017-Nov-15 08:38N 35°02' E 139°27'212.8
2017-Nov-15 08:30N 35°02' E 139°28'612.6
2017-Nov-15 08:00N 35°05' E 139°35'612.7
2017-Nov-15 07:30N 35°08' E 139°42'713.1
2017-Nov-15 07:00N 35°13' E 139°46'713.3
2017-Nov-15 06:30N 35°19' E 139°43'713.2
2017-Nov-15 06:00N 35°26' E 139°43'4 8.0
2017-Nov-15 05:30N 35°30' E 139°44'0 0.0
2017-Nov-15 05:00N 35°30' E 139°44'0 0.0
2017-Nov-15 04:30N 35°30' E 139°44'0 0.0
2017-Nov-15 04:00N 35°30' E 139°44'0 0.0
2017-Nov-15 03:30N 35°30' E 139°44'0 0.0
2017-Nov-15 03:00N 35°30' E 139°44'0 0.0
2017-Nov-15 02:30N 35°30' E 139°44'0 0.0
2017-Nov-15 02:00N 35°30' E 139°44'0 0.0
2017-Nov-15 01:30N 35°30' E 139°44'0 0.0
2017-Nov-15 01:00N 35°30' E 139°44'3 5.2
2017-Nov-15 00:30N 35°28' E 139°42'5 9.7
2017-Nov-15 00:00N 35°24' E 139°46'612.4
2017-Nov-14 23:30N 35°18' E 139°45'612.3
2017-Nov-14 23:00N 35°12' E 139°47'612.8
2017-Nov-14 22:30N 35°06' E 139°47'611.7
2017-Nov-14 22:00N 35°00' E 139°50'1 2.5
2017-Nov-14 21:30N 34°59' E 139°51'0 0.0
2017-Nov-14 21:00N 34°59' E 139°51'0 0.0
2017-Nov-14 20:30N 34°59' E 139°51'0 0.0
2017-Nov-14 20:00N 34°59' E 139°51'0 0.0
2017-Nov-14 19:30N 34°59' E 139°51'0 0.0
2017-Nov-14 19:00N 34°59' E 139°51'0 0.0
2017-Nov-14 18:30N 34°59' E 139°51'0 0.0
2017-Nov-14 18:00N 34°59' E 139°51'0 0.0
2017-Nov-14 17:30N 34°59' E 139°51'0 0.0
2017-Nov-14 17:00N 34°59' E 139°51'0 0.0
2017-Nov-14 16:30N 34°59' E 139°51'0 0.0
2017-Nov-14 16:00N 34°59' E 139°51'0 0.0
2017-Nov-14 15:30N 34°59' E 139°51'0 0.0
2017-Nov-14 15:00N 34°59' E 139°51'0 0.0
2017-Nov-14 14:29N 34°59' E 139°51'0 0.0
2017-Nov-14 14:00N 34°59' E 139°51'0 0.0
2017-Nov-14 13:30N 34°59' E 139°51'0 0.0
2017-Nov-14 13:00N 34°59' E 139°51'0 0.0
2017-Nov-14 12:30N 34°59' E 139°51'0 0.0
2017-Nov-14 12:00N 34°59' E 139°51'0 0.0
2017-Nov-14 11:30N 34°59' E 139°51'0 0.0
2017-Nov-14 11:00N 34°59' E 139°51'0 0.0
2017-Nov-14 10:30N 34°59' E 139°51'0 0.0
2017-Nov-14 10:00N 34°59' E 139°51'0 0.0
2017-Nov-14 09:30N 34°59' E 139°51'0 0.0
2017-Nov-14 09:00N 34°59' E 139°51'0 0.0
2017-Nov-14 08:30N 34°59' E 139°51'0 0.0
2017-Nov-14 08:00N 34°59' E 139°51'0 0.0
2017-Nov-14 07:30N 34°59' E 139°51'0 0.9
2017-Nov-14 06:59N 34°60' E 139°51'611.6
2017-Nov-14 06:30N 35°04' E 139°47'713.6
2017-Nov-14 06:00N 35°11' E 139°47'613.0
2017-Nov-14 05:30N 35°17' E 139°45'611.0
2017-Nov-14 05:01N 35°23' E 139°44'0 0.1
2017-Nov-14 04:30N 35°23' E 139°44'2 3.3
2017-Nov-14 04:00N 35°23' E 139°42'1 2.2
2017-Nov-14 03:30N 35°24' E 139°41'0 0.0
2017-Nov-14 03:00N 35°24' E 139°41'0 0.0
2017-Nov-14 02:30N 35°24' E 139°41'0 0.0
2017-Nov-14 02:00N 35°24' E 139°41'0 0.1
2017-Nov-14 01:30N 35°24' E 139°41'0 0.0
2017-Nov-14 01:00N 35°24' E 139°41'0 0.0
2017-Nov-14 00:30N 35°24' E 139°41'0 0.0
2017-Nov-14 00:00N 35°24' E 139°41'0 0.0
2017-Nov-13 23:30N 35°24' E 139°41'1 1.3
2017-Nov-13 23:00N 35°23' E 139°40'3 6.5
2017-Nov-13 22:30N 35°22' E 139°44'0 0.0
2017-Nov-13 22:00N 35°22' E 139°44'  
2017-Nov-10 06:08N 34°57' E 139°25'212.5
2017-Nov-10 05:58N 34°58' E 139°28'612.9
2017-Nov-10 05:30N 35°01' E 139°34'613.1
2017-Nov-10 05:01N 35°05' E 139°40'713.4
2017-Nov-10 04:30N 35°10' E 139°45'612.7
2017-Nov-10 04:00N 35°17' E 139°45'713.2
2017-Nov-10 03:31N 35°22' E 139°41'1 3.0
2017-Nov-10 03:00N 35°24' E 139°41'0 0.0
2017-Nov-10 02:31N 35°24' E 139°41'0 0.0
2017-Nov-10 02:01N 35°24' E 139°41'0 0.0
2017-Nov-10 01:31N 35°24' E 139°41'0 0.0
2017-Nov-10 01:01N 35°24' E 139°41'0 0.0
2017-Nov-10 00:31N 35°24' E 139°41'0 0.0
2017-Nov-10 00:01N 35°24' E 139°41'0 0.0
2017-Nov-09 23:31N 35°24' E 139°41'0 0.0
2017-Nov-09 23:00N 35°24' E 139°41'0 0.0
2017-Nov-09 22:31N 35°24' E 139°41'0 0.4
2017-Nov-09 22:01N 35°24' E 139°41'3 5.5
2017-Nov-09 21:30N 35°22' E 139°43'1 1.1
2017-Nov-09 20:58N 35°22' E 139°44'0 0.1
2017-Nov-09 20:28N 35°22' E 139°44'0 0.1
2017-Nov-09 19:58N 35°22' E 139°44'0 0.0
2017-Nov-09 19:28N 35°22' E 139°44'0 0.0
2017-Nov-09 18:58N 35°22' E 139°44'0 0.0
2017-Nov-09 18:28N 35°22' E 139°44'0 0.0
2017-Nov-09 17:58N 35°22' E 139°44'0 0.1
2017-Nov-09 17:30N 35°22' E 139°44'5 9.1
2017-Nov-09 17:00N 35°17' E 139°45'611.0
2017-Nov-09 16:30N 35°12' E 139°47'  
Track history (hours):
 
Tides and Currents Weather Stations Pressure Air Temp Water Temp Dewpoint Dewpoint Depression Visibility Wind Speed Wind Dir Waves Ship Positions

Sada Maru No.37

Last reported at 2017-Nov-17 09:54 UTC. Time now 2017-Nov-18 21:25 UTC.
Position N 34°51' E 139°52'.

Length 78 m; draft 4.5 m.

Type: Cargo ship. MMSI: 431005101.

Date/timePositionNaut miles runAvg speedWind from/ knotsBaromVisibWave heightAir tempDewpointWater temp
2017-Nov-17 09:54N 34°51' E 139°52'512.6
2017-Nov-17 09:30N 34°53' E 139°46'612.8
2017-Nov-17 09:00N 34°59' E 139°43'611.6
2017-Nov-17 08:30N 35°05' E 139°44'612.5
2017-Nov-17 08:00N 35°11' E 139°46'612.4
2017-Nov-17 07:30N 35°17' E 139°45'612.6
2017-Nov-17 07:00N 35°23' E 139°42'5 9.1
2017-Nov-17 06:30N 35°25' E 139°48'4 7.3
2017-Nov-17 06:00N 35°22' E 139°51'0 0.1
2017-Nov-17 05:29N 35°22' E 139°51'0 0.0
2017-Nov-17 05:00N 35°22' E 139°51'0 0.0
2017-Nov-17 04:30N 35°22' E 139°51'0 0.0
2017-Nov-17 04:00N 35°22' E 139°51'0 0.0
2017-Nov-17 03:30N 35°22' E 139°51'0 0.0
2017-Nov-17 03:00N 35°22' E 139°51'0 0.0
2017-Nov-17 02:30N 35°22' E 139°51'0 0.0
2017-Nov-17 02:00N 35°22' E 139°51'0 0.0
2017-Nov-17 01:30N 35°22' E 139°51'0 0.0
2017-Nov-17 01:00N 35°22' E 139°51'1 1.9
2017-Nov-17 00:30N 35°22' E 139°49'0 0.0
2017-Nov-17 00:00N 35°22' E 139°49'0 0.0
2017-Nov-16 23:30N 35°22' E 139°49'0 0.0
2017-Nov-16 23:00N 35°22' E 139°49'0 0.1
2017-Nov-16 22:30N 35°22' E 139°49'0 0.0
2017-Nov-16 22:00N 35°22' E 139°49'0 0.1
2017-Nov-16 21:30N 35°22' E 139°49'0 0.2
2017-Nov-16 21:00N 35°22' E 139°49'4 8.6
2017-Nov-16 20:30N 35°20' E 139°44'611.6
2017-Nov-16 20:00N 35°15' E 139°47'612.7
2017-Nov-16 19:30N 35°09' E 139°46'713.3
2017-Nov-16 19:00N 35°04' E 139°41'713.2
2017-Nov-16 18:30N 34°59' E 139°34'21 0.7
2017-Nov-15 10:02N 34°52' E 139°10'112.5
2017-Nov-15 09:58N 34°52' E 139°11'1611.9
2017-Nov-15 08:38N 35°02' E 139°27'212.8
2017-Nov-15 08:30N 35°02' E 139°28'612.6
2017-Nov-15 08:00N 35°05' E 139°35'612.7
2017-Nov-15 07:30N 35°08' E 139°42'713.1
2017-Nov-15 07:00N 35°13' E 139°46'713.3
2017-Nov-15 06:30N 35°19' E 139°43'713.2
2017-Nov-15 06:00N 35°26' E 139°43'4 8.0
2017-Nov-15 05:30N 35°30' E 139°44'0 0.0
2017-Nov-15 05:00N 35°30' E 139°44'0 0.0
2017-Nov-15 04:30N 35°30' E 139°44'0 0.0
2017-Nov-15 04:00N 35°30' E 139°44'0 0.0
2017-Nov-15 03:30N 35°30' E 139°44'0 0.0
2017-Nov-15 03:00N 35°30' E 139°44'0 0.0
2017-Nov-15 02:30N 35°30' E 139°44'0 0.0
2017-Nov-15 02:00N 35°30' E 139°44'0 0.0
2017-Nov-15 01:30N 35°30' E 139°44'0 0.0
2017-Nov-15 01:00N 35°30' E 139°44'3 5.2
2017-Nov-15 00:30N 35°28' E 139°42'5 9.7
2017-Nov-15 00:00N 35°24' E 139°46'612.4
2017-Nov-14 23:30N 35°18' E 139°45'612.3
2017-Nov-14 23:00N 35°12' E 139°47'612.8
2017-Nov-14 22:30N 35°06' E 139°47'611.7
2017-Nov-14 22:00N 35°00' E 139°50'1 2.5
2017-Nov-14 21:30N 34°59' E 139°51'0 0.0
2017-Nov-14 21:00N 34°59' E 139°51'0 0.0
2017-Nov-14 20:30N 34°59' E 139°51'0 0.0
2017-Nov-14 20:00N 34°59' E 139°51'0 0.0
2017-Nov-14 19:30N 34°59' E 139°51'0 0.0
2017-Nov-14 19:00N 34°59' E 139°51'0 0.0
2017-Nov-14 18:30N 34°59' E 139°51'0 0.0
2017-Nov-14 18:00N 34°59' E 139°51'0 0.0
2017-Nov-14 17:30N 34°59' E 139°51'0 0.0
2017-Nov-14 17:00N 34°59' E 139°51'0 0.0
2017-Nov-14 16:30N 34°59' E 139°51'0 0.0
2017-Nov-14 16:00N 34°59' E 139°51'0 0.0
2017-Nov-14 15:30N 34°59' E 139°51'0 0.0
2017-Nov-14 15:00N 34°59' E 139°51'0 0.0
2017-Nov-14 14:29N 34°59' E 139°51'0 0.0
2017-Nov-14 14:00N 34°59' E 139°51'0 0.0
2017-Nov-14 13:30N 34°59' E 139°51'0 0.0
2017-Nov-14 13:00N 34°59' E 139°51'0 0.0
2017-Nov-14 12:30N 34°59' E 139°51'0 0.0
2017-Nov-14 12:00N 34°59' E 139°51'0 0.0
2017-Nov-14 11:30N 34°59' E 139°51'0 0.0
2017-Nov-14 11:00N 34°59' E 139°51'0 0.0
2017-Nov-14 10:30N 34°59' E 139°51'0 0.0
2017-Nov-14 10:00N 34°59' E 139°51'0 0.0
2017-Nov-14 09:30N 34°59' E 139°51'0 0.0
2017-Nov-14 09:00N 34°59' E 139°51'0 0.0
2017-Nov-14 08:30N 34°59' E 139°51'0 0.0
2017-Nov-14 08:00N 34°59' E 139°51'0 0.0
2017-Nov-14 07:30N 34°59' E 139°51'0 0.9
2017-Nov-14 06:59N 34°60' E 139°51'611.6
2017-Nov-14 06:30N 35°04' E 139°47'713.6
2017-Nov-14 06:00N 35°11' E 139°47'613.0
2017-Nov-14 05:30N 35°17' E 139°45'611.0
2017-Nov-14 05:01N 35°23' E 139°44'0 0.1
2017-Nov-14 04:30N 35°23' E 139°44'2 3.3
2017-Nov-14 04:00N 35°23' E 139°42'1 2.2
2017-Nov-14 03:30N 35°24' E 139°41'0 0.0
2017-Nov-14 03:00N 35°24' E 139°41'0 0.0
2017-Nov-14 02:30N 35°24' E 139°41'0 0.0
2017-Nov-14 02:00N 35°24' E 139°41'0 0.1
2017-Nov-14 01:30N 35°24' E 139°41'0 0.0
2017-Nov-14 01:00N 35°24' E 139°41'0 0.0
2017-Nov-14 00:30N 35°24' E 139°41'0 0.0
2017-Nov-14 00:00N 35°24' E 139°41'0 0.0
2017-Nov-13 23:30N 35°24' E 139°41'1 1.3
2017-Nov-13 23:00N 35°23' E 139°40'3 6.5
2017-Nov-13 22:30N 35°22' E 139°44'0 0.0
2017-Nov-13 22:00N 35°22' E 139°44'  
2017-Nov-10 06:08N 34°57' E 139°25'212.5
2017-Nov-10 05:58N 34°58' E 139°28'612.9
2017-Nov-10 05:30N 35°01' E 139°34'613.1
2017-Nov-10 05:01N 35°05' E 139°40'713.4
2017-Nov-10 04:30N 35°10' E 139°45'612.7
2017-Nov-10 04:00N 35°17' E 139°45'713.2
2017-Nov-10 03:31N 35°22' E 139°41'1 3.0
2017-Nov-10 03:00N 35°24' E 139°41'0 0.0
2017-Nov-10 02:31N 35°24' E 139°41'0 0.0
2017-Nov-10 02:01N 35°24' E 139°41'0 0.0
2017-Nov-10 01:31N 35°24' E 139°41'0 0.0
2017-Nov-10 01:01N 35°24' E 139°41'0 0.0
2017-Nov-10 00:31N 35°24' E 139°41'0 0.0
2017-Nov-10 00:01N 35°24' E 139°41'0 0.0
2017-Nov-09 23:31N 35°24' E 139°41'0 0.0
2017-Nov-09 23:00N 35°24' E 139°41'0 0.0
2017-Nov-09 22:31N 35°24' E 139°41'0 0.4
2017-Nov-09 22:01N 35°24' E 139°41'3 5.5
2017-Nov-09 21:30N 35°22' E 139°43'1 1.1
2017-Nov-09 20:58N 35°22' E 139°44'0 0.1
2017-Nov-09 20:28N 35°22' E 139°44'0 0.1
2017-Nov-09 19:58N 35°22' E 139°44'0 0.0
2017-Nov-09 19:28N 35°22' E 139°44'0 0.0
2017-Nov-09 18:58N 35°22' E 139°44'0 0.0
2017-Nov-09 18:28N 35°22' E 139°44'0 0.0
2017-Nov-09 17:58N 35°22' E 139°44'0 0.1
2017-Nov-09 17:30N 35°22' E 139°44'5 9.1
2017-Nov-09 17:00N 35°17' E 139°45'611.0
2017-Nov-09 16:30N 35°12' E 139°47'  

Dump ship's entire track history